Time;durP1;ratioP1;P1;durP2;ratioP2;P2;SDS_P1;SDS_P2;PMS_P1;PMS_P2;Temp;Humidity;BMP_temperature;BMP_pressure;BME280_temperature;BME280_humidity;BME280_pressure;Samples;Min_cycle;Max_cycle;Signal;HPM_P1;HPM_P2
2021/10/10 00:01:41;;;;;;;1.55;0.63;;;;;;;;;;5035511;28;20088;-68
2021/10/10 00:04:07;;;;;;;0.65;0.25;;;;;;;;;;5035551;28;20037;-69
2021/10/10 00:06:32;;;;;;;0.20;0.20;;;;;;;;;;5035210;28;20025;-68
2021/10/10 00:08:57;;;;;;;0.20;0.13;;;;;;;;;;5034429;28;20044;-68
2021/10/10 00:11:23;;;;;;;0.20;0.20;;;;;;;;;;5035401;28;20499;-68
2021/10/10 00:13:48;;;;;;;1.10;0.38;;;;;;;;;;5035556;28;20449;-68
2021/10/10 00:16:14;;;;;;;1.10;0.40;;;;;;;;;;5035462;28;20021;-68
2021/10/10 00:18:39;;;;;;;0.50;0.22;;;;;;;;;;5035154;28;20385;-68
2021/10/10 00:21:04;;;;;;;0.60;0.30;;;;;;;;;;5035471;28;20076;-68
2021/10/10 00:23:30;;;;;;;0.40;0.22;;;;;;;;;;5034357;28;20037;-69
2021/10/10 00:25:55;;;;;;;0.28;0.25;;;;;;;;;;5034912;28;20022;-68
2021/10/10 00:28:20;;;;;;;0.52;0.30;;;;;;;;;;5035217;28;20413;-68
2021/10/10 00:30:46;;;;;;;0.10;0.10;;;;;;;;;;5035102;28;20105;-68
2021/10/10 00:33:11;;;;;;;0.60;0.30;;;;;;;;;;5035183;28;20017;-68
2021/10/10 00:35:36;;;;;;;0.38;0.08;;;;;;;;;;5035004;28;21089;-68
2021/10/10 00:38:02;;;;;;;0.90;0.30;;;;;;;;;;5035044;28;20021;-68
2021/10/10 00:40:27;;;;;;;0.38;0.38;;;;;;;;;;5034933;28;20028;-68
2021/10/10 00:42:52;;;;;;;0.75;0.35;;;;;;;;;;5034827;28;20094;-68
2021/10/10 00:45:18;;;;;;;1.67;0.20;;;;;;;;;;5034724;28;20056;-68
2021/10/10 00:47:43;;;;;;;0.52;0.30;;;;;;;;;;5034991;28;20728;-68
2021/10/10 00:50:09;;;;;;;0.40;0.40;;;;;;;;;;5034512;28;20473;-69
2021/10/10 00:52:36;;;;;;;0.28;0.20;;;;;;;;;;5034803;28;20536;-68
2021/10/10 00:55:02;;;;;;;1.60;0.43;;;;;;;;;;5034816;28;20021;-68
2021/10/10 00:57:27;;;;;;;0.17;0.13;;;;;;;;;;5034659;28;20036;-68
2021/10/10 00:59:53;;;;;;;0.28;0.28;;;;;;;;;;5034555;28;20380;-68
2021/10/10 01:02:18;;;;;;;0.98;0.45;;;;;;;;;;5034451;28;20445;-68
2021/10/10 01:04:43;;;;;;;0.35;0.28;;;;;;;;;;5034605;28;20093;-69
2021/10/10 01:07:09;;;;;;;0.43;0.03;;;;;;;;;;5034496;28;20457;-68
2021/10/10 01:09:37;;;;;;;0.30;0.20;;;;;;;;;;5034439;28;20531;-68
2021/10/10 01:12:04;;;;;;;0.25;0.10;;;;;;;;;;5034146;28;20096;-68
2021/10/10 01:14:29;;;;;;;0.73;0.40;;;;;;;;;;5034184;28;20052;-67
2021/10/10 01:16:54;;;;;;;0.90;0.25;;;;;;;;;;5032983;28;20403;-69
2021/10/10 01:19:20;;;;;;;0.45;0.13;;;;;;;;;;5034281;28;20032;-69
2021/10/10 01:21:45;;;;;;;0.47;0.30;;;;;;;;;;5034417;28;20018;-68
2021/10/10 01:24:11;;;;;;;1.65;0.40;;;;;;;;;;5033899;28;20045;-68
2021/10/10 01:26:36;;;;;;;0.35;0.20;;;;;;;;;;5034300;28;20029;-69
2021/10/10 01:29:01;;;;;;;0.40;0.40;;;;;;;;;;5033904;28;20096;-68
2021/10/10 01:31:26;;;;;;;0.47;0.35;;;;;;;;;;5033945;28;20045;-69
2021/10/10 01:33:53;;;;;;;0.77;0.30;;;;;;;;;;5033976;28;20017;-69
2021/10/10 01:36:19;;;;;;;0.28;0.20;;;;;;;;;;5033655;28;20468;-68
2021/10/10 01:38:44;;;;;;;0.57;0.43;;;;;;;;;;5033886;28;20030;-68
2021/10/10 01:41:10;;;;;;;0.93;0.20;;;;;;;;;;5033733;28;20025;-68
2021/10/10 01:43:35;;;;;;;0.35;0.20;;;;;;;;;;5033781;28;20049;-68
2021/10/10 01:46:00;;;;;;;0.30;0.20;;;;;;;;;;5032614;28;20338;-69
2021/10/10 01:48:26;;;;;;;0.10;0.00;;;;;;;;;;5033522;28;20017;-69
2021/10/10 01:50:51;;;;;;;0.40;0.30;;;;;;;;;;5033643;28;20020;-68
2021/10/10 01:53:16;;;;;;;0.70;0.20;;;;;;;;;;5033477;28;20043;-68
2021/10/10 01:55:43;;;;;;;0.40;0.20;;;;;;;;;;5033709;28;20376;-68
2021/10/10 01:58:08;;;;;;;1.08;0.35;;;;;;;;;;5033666;28;20018;-68
2021/10/10 02:00:34;;;;;;;0.47;0.38;;;;;;;;;;5033449;28;20116;-68
2021/10/10 02:02:59;;;;;;;0.10;0.10;;;;;;;;;;5032361;28;20044;-68
2021/10/10 02:05:26;;;;;;;1.38;0.30;;;;;;;;;;5033441;28;20042;-68
2021/10/10 02:07:52;;;;;;;0.25;0.20;;;;;;;;;;5033561;28;20384;-69
2021/10/10 02:10:18;;;;;;;0.77;0.20;;;;;;;;;;5031841;28;20033;-67
2021/10/10 02:12:43;;;;;;;1.08;0.00;;;;;;;;;;5033235;28;20032;-68
2021/10/10 02:15:08;;;;;;;0.80;0.15;;;;;;;;;;5032267;28;20021;-69
2021/10/10 02:17:34;;;;;;;0.47;0.20;;;;;;;;;;5033308;28;20024;-68
2021/10/10 02:19:59;;;;;;;0.93;0.28;;;;;;;;;;5033153;28;20032;-68
2021/10/10 02:22:25;;;;;;;1.88;0.22;;;;;;;;;;5033147;28;20025;-68
2021/10/10 02:24:51;;;;;;;1.00;0.30;;;;;;;;;;5033323;28;20464;-67
2021/10/10 02:27:16;;;;;;;0.75;0.20;;;;;;;;;;5033338;28;20096;-68
2021/10/10 02:29:42;;;;;;;0.80;0.30;;;;;;;;;;5033202;28;20036;-68
2021/10/10 02:32:07;;;;;;;2.05;0.30;;;;;;;;;;5033071;28;20397;-68
2021/10/10 02:34:32;;;;;;;0.50;0.17;;;;;;;;;;5033155;28;20022;-68
2021/10/10 02:36:58;;;;;;;0.60;0.40;;;;;;;;;;5033185;28;20456;-68
2021/10/10 02:39:23;;;;;;;0.38;0.28;;;;;;;;;;5032857;28;20473;-68
2021/10/10 02:41:48;;;;;;;0.77;0.30;;;;;;;;;;5032903;28;20025;-68
2021/10/10 02:44:13;;;;;;;0.57;0.30;;;;;;;;;;5032839;28;20686;-68
2021/10/10 02:46:38;;;;;;;0.98;0.25;;;;;;;;;;5033386;28;20247;-68
2021/10/10 02:49:04;;;;;;;2.25;0.35;;;;;;;;;;5036941;28;20488;-68
2021/10/10 02:51:30;;;;;;;0.57;0.30;;;;;;;;;;5036991;28;20056;-68
2021/10/10 02:53:55;;;;;;;2.25;0.20;;;;;;;;;;5036846;28;20354;-67
2021/10/10 02:56:21;;;;;;;0.60;0.25;;;;;;;;;;5036928;28;20104;-68
2021/10/10 02:58:46;;;;;;;0.65;0.60;;;;;;;;;;5036821;28;20189;-68
2021/10/10 03:01:11;;;;;;;1.75;0.20;;;;;;;;;;5036401;28;20038;-68
2021/10/10 03:03:36;;;;;;;0.55;0.50;;;;;;;;;;5036613;28;20481;-69
2021/10/10 03:06:02;;;;;;;1.55;0.28;;;;;;;;;;5036801;28;20396;-68
2021/10/10 03:08:27;;;;;;;0.47;0.20;;;;;;;;;;5036787;28;20037;-68
2021/10/10 03:10:52;;;;;;;0.77;0.30;;;;;;;;;;5035494;28;20030;-69
2021/10/10 03:13:17;;;;;;;1.63;0.30;;;;;;;;;;5036410;28;20484;-68
2021/10/10 03:15:43;;;;;;;0.43;0.13;;;;;;;;;;5036405;28;20112;-68
2021/10/10 03:18:08;;;;;;;0.28;0.25;;;;;;;;;;5036232;28;20104;-68
2021/10/10 03:20:33;;;;;;;0.50;0.30;;;;;;;;;;5036317;28;20456;-68
2021/10/10 03:22:58;;;;;;;0.20;0.20;;;;;;;;;;5036361;28;20029;-68
2021/10/10 03:25:24;;;;;;;0.50;0.30;;;;;;;;;;5036110;28;20266;-68
2021/10/10 03:27:49;;;;;;;0.50;0.30;;;;;;;;;;5036545;28;20017;-68
2021/10/10 03:30:14;;;;;;;0.22;0.17;;;;;;;;;;5036318;28;20013;-68
2021/10/10 03:32:39;;;;;;;0.40;0.30;;;;;;;;;;5036086;28;20026;-69
2021/10/10 03:35:05;;;;;;;0.10;0.10;;;;;;;;;;5036055;28;20030;-68
2021/10/10 03:37:30;;;;;;;0.68;0.40;;;;;;;;;;5034749;28;20067;-67
2021/10/10 03:39:56;;;;;;;0.73;0.60;;;;;;;;;;5035864;28;20025;-68
2021/10/10 03:42:21;;;;;;;0.30;0.30;;;;;;;;;;5036008;28;20025;-69
2021/10/10 03:44:47;;;;;;;0.60;0.20;;;;;;;;;;5036129;28;20028;-68
2021/10/10 03:47:15;;;;;;;0.60;0.38;;;;;;;;;;5035878;28;20022;-69
2021/10/10 03:49:40;;;;;;;0.70;0.30;;;;;;;;;;5035815;28;20024;-68
2021/10/10 03:52:05;;;;;;;0.30;0.30;;;;;;;;;;5035912;28;20013;-68
2021/10/10 03:57:20;;;;;;;0.20;0.20;;;;;;;;;;5035719;28;20064;-68
2021/10/10 03:59:49;;;;;;;0.52;0.30;;;;;;;;;;5034601;28;20024;-68
2021/10/10 04:02:14;;;;;;;0.98;0.50;;;;;;;;;;5035568;28;20045;-68
2021/10/10 04:04:39;;;;;;;0.77;0.25;;;;;;;;;;5035583;28;20017;-68
2021/10/10 04:07:05;;;;;;;1.00;0.30;;;;;;;;;;5035770;28;20521;-68
2021/10/10 04:09:30;;;;;;;0.70;0.38;;;;;;;;;;5035367;28;20017;-68
2021/10/10 04:11:56;;;;;;;0.55;0.32;;;;;;;;;;5034502;28;20043;-68
2021/10/10 04:14:21;;;;;;;0.55;0.30;;;;;;;;;;5035370;28;20101;-68
2021/10/10 04:16:47;;;;;;;0.77;0.32;;;;;;;;;;5035344;28;20112;-68
2021/10/10 04:19:12;;;;;;;0.35;0.30;;;;;;;;;;5035513;28;20040;-69
2021/10/10 04:21:37;;;;;;;0.47;0.40;;;;;;;;;;5035027;28;20037;-68
2021/10/10 04:24:02;;;;;;;0.60;0.50;;;;;;;;;;5035218;28;20033;-68
2021/10/10 04:26:29;;;;;;;0.73;0.40;;;;;;;;;;5035503;28;20026;-69
2021/10/10 04:28:54;;;;;;;0.88;0.38;;;;;;;;;;5035369;28;20428;-68
2021/10/10 04:31:19;;;;;;;0.20;0.20;;;;;;;;;;5035004;28;20124;-68
2021/10/10 04:33:45;;;;;;;1.17;0.30;;;;;;;;;;5035187;28;20468;-69
2021/10/10 04:36:10;;;;;;;0.40;0.33;;;;;;;;;;5035146;28;20373;-68
2021/10/10 04:38:35;;;;;;;0.38;0.20;;;;;;;;;;5035015;28;20809;-68
2021/10/10 04:41:00;;;;;;;0.30;0.30;;;;;;;;;;5035104;28;20376;-69
2021/10/10 04:43:25;;;;;;;0.50;0.40;;;;;;;;;;5034669;28;20021;-68
2021/10/10 04:45:51;;;;;;;0.28;0.22;;;;;;;;;;5035047;28;20060;-68
2021/10/10 04:48:16;;;;;;;0.30;0.30;;;;;;;;;;5034610;28;20029;-68
2021/10/10 04:50:41;;;;;;;1.23;0.40;;;;;;;;;;5034920;28;20379;-68
2021/10/10 04:53:06;;;;;;;0.65;0.32;;;;;;;;;;5034830;28;20250;-69
2021/10/10 04:55:31;;;;;;;0.20;0.20;;;;;;;;;;5034479;28;20029;-68
2021/10/10 04:57:57;;;;;;;1.33;0.30;;;;;;;;;;5034772;28;20098;-69
2021/10/10 05:00:22;;;;;;;0.40;0.30;;;;;;;;;;5034339;28;20041;-69
2021/10/10 05:02:47;;;;;;;1.15;0.50;;;;;;;;;;5033039;28;20025;-68
2021/10/10 05:05:12;;;;;;;0.30;0.30;;;;;;;;;;5034336;28;20108;-69
2021/10/10 05:07:37;;;;;;;0.80;0.30;;;;;;;;;;5034423;28;20112;-68
2021/10/10 05:10:03;;;;;;;0.88;0.40;;;;;;;;;;5033941;28;20045;-68
2021/10/10 05:12:29;;;;;;;0.65;0.20;;;;;;;;;;5034172;28;20061;-69
2021/10/10 05:14:54;;;;;;;0.38;0.38;;;;;;;;;;5034370;28;20013;-68
2021/10/10 05:17:20;;;;;;;0.47;0.38;;;;;;;;;;5034347;28;20024;-69
2021/10/10 05:19:45;;;;;;;0.70;0.20;;;;;;;;;;5034430;28;20103;-68
2021/10/10 05:22:10;;;;;;;1.88;0.75;;;;;;;;;;5034239;28;20250;-68
2021/10/10 05:24:35;;;;;;;0.40;0.30;;;;;;;;;;5032913;28;20021;-69
2021/10/10 05:27:01;;;;;;;0.32;0.28;;;;;;;;;;5034286;28;20479;-69
2021/10/10 05:29:26;;;;;;;0.28;0.28;;;;;;;;;;5033916;28;20023;-68
2021/10/10 05:31:51;;;;;;;0.20;0.20;;;;;;;;;;5034146;28;20021;-68
2021/10/10 05:34:17;;;;;;;0.52;0.20;;;;;;;;;;5033751;28;20021;-68
2021/10/10 05:36:42;;;;;;;0.20;0.20;;;;;;;;;;5033951;28;20433;-68
2021/10/10 05:39:07;;;;;;;0.20;0.20;;;;;;;;;;5034003;28;20022;-69
2021/10/10 05:41:32;;;;;;;0.40;0.20;;;;;;;;;;5033592;28;20263;-68
2021/10/10 05:43:58;;;;;;;0.13;0.13;;;;;;;;;;5032577;28;20025;-68
2021/10/10 05:46:23;;;;;;;0.40;0.25;;;;;;;;;;5033590;28;20017;-68
2021/10/10 05:48:48;;;;;;;0.30;0.20;;;;;;;;;;5033719;28;20018;-67
2021/10/10 05:51:14;;;;;;;0.20;0.20;;;;;;;;;;5033688;28;20029;-68
2021/10/10 05:53:40;;;;;;;0.17;0.17;;;;;;;;;;5033378;28;20441;-69
2021/10/10 05:56:05;;;;;;;0.22;0.20;;;;;;;;;;5033711;28;20031;-68
2021/10/10 05:58:33;;;;;;;0.20;0.20;;;;;;;;;;5033162;28;20026;-68
2021/10/10 06:00:59;;;;;;;0.25;0.25;;;;;;;;;;5033420;28;20382;-68
2021/10/10 06:03:24;;;;;;;0.22;0.20;;;;;;;;;;5033341;28;20029;-67
2021/10/10 06:05:49;;;;;;;1.05;0.20;;;;;;;;;;5033604;28;20464;-68
2021/10/10 06:08:14;;;;;;;0.22;0.22;;;;;;;;;;5033379;28;20017;-69
2021/10/10 06:10:40;;;;;;;0.38;0.20;;;;;;;;;;5033278;28;20024;-68
2021/10/10 06:13:08;;;;;;;0.30;0.15;;;;;;;;;;5033237;28;20033;-68
2021/10/10 06:15:34;;;;;;;0.43;0.40;;;;;;;;;;5033323;28;20448;-68
2021/10/10 06:18:00;;;;;;;0.77;0.28;;;;;;;;;;5033408;28;20068;-68
2021/10/10 06:20:25;;;;;;;1.52;0.25;;;;;;;;;;5033340;28;20472;-68
2021/10/10 06:22:50;;;;;;;0.32;0.22;;;;;;;;;;5032785;28;20033;-69
2021/10/10 06:25:16;;;;;;;0.17;0.10;;;;;;;;;;5032961;28;20101;-68
2021/10/10 06:27:41;;;;;;;0.35;0.22;;;;;;;;;;5033363;28;20025;-68
2021/10/10 06:30:07;;;;;;;0.75;0.30;;;;;;;;;;5033354;28;20100;-68
2021/10/10 06:32:32;;;;;;;1.48;0.30;;;;;;;;;;5033184;28;20025;-68
2021/10/10 06:34:57;;;;;;;0.43;0.30;;;;;;;;;;5033147;28;20018;-68
2021/10/10 06:37:22;;;;;;;0.20;0.20;;;;;;;;;;5033149;28;20026;-68
2021/10/10 06:39:47;;;;;;;0.63;0.30;;;;;;;;;;5033160;28;20031;-67
2021/10/10 06:42:14;;;;;;;0.85;0.38;;;;;;;;;;5032971;28;20029;-69
2021/10/10 06:44:39;;;;;;;0.77;0.40;;;;;;;;;;5033048;28;20017;-68
2021/10/10 06:47:04;;;;;;;0.30;0.20;;;;;;;;;;5033128;28;20024;-68
2021/10/10 06:49:29;;;;;;;0.70;0.30;;;;;;;;;;5032966;28;20096;-69
2021/10/10 06:51:55;;;;;;;0.85;0.40;;;;;;;;;;5033018;28;20072;-68
2021/10/10 06:54:20;;;;;;;0.47;0.20;;;;;;;;;;5032634;28;20022;-67
2021/10/10 06:56:45;;;;;;;0.43;0.32;;;;;;;;;;5031714;28;20033;-68
2021/10/10 06:59:10;;;;;;;0.25;0.25;;;;;;;;;;5032901;28;20034;-68
2021/10/10 07:01:36;;;;;;;0.22;0.20;;;;;;;;;;5032559;28;20476;-68
2021/10/10 07:04:01;;;;;;;0.30;0.20;;;;;;;;;;5032923;28;20021;-68
2021/10/10 07:06:26;;;;;;;0.80;0.50;;;;;;;;;;5032729;28;20251;-68
2021/10/10 07:08:52;;;;;;;0.55;0.40;;;;;;;;;;5032865;28;20273;-68
2021/10/10 07:11:17;;;;;;;0.50;0.22;;;;;;;;;;5032329;28;20089;-68
2021/10/10 07:13:43;;;;;;;0.95;0.35;;;;;;;;;;5032926;28;20033;-68
2021/10/10 07:16:08;;;;;;;0.45;0.20;;;;;;;;;;5032781;28;20015;-68
2021/10/10 07:19:06;;;;;;;0.25;0.20;;;;;;;;;;5032637;28;20025;-68
2021/10/10 07:26:52;;;;;;;0.40;0.10;;;;;;;;;;5032926;28;20067;-68
2021/10/10 07:29:18;;;;;;;1.40;0.28;;;;;;;;;;5032597;28;20018;-68
2021/10/10 07:31:43;;;;;;;0.65;0.20;;;;;;;;;;5032492;28;20030;-68
2021/10/10 07:34:08;;;;;;;0.60;0.28;;;;;;;;;;5035190;28;20484;-67
2021/10/10 07:36:33;;;;;;;0.20;0.20;;;;;;;;;;5036221;28;20020;-69
2021/10/10 07:39:00;;;;;;;0.40;0.25;;;;;;;;;;5036211;28;20025;-68
2021/10/10 07:41:25;;;;;;;0.50;0.13;;;;;;;;;;5036105;28;20734;-68
2021/10/10 07:43:50;;;;;;;0.38;0.32;;;;;;;;;;5036253;28;20025;-68
2021/10/10 07:46:32;;;;;;;0.10;0.10;;;;;;;;;;5035799;28;20018;-68
2021/10/10 07:48:58;;;;;;;0.10;0.10;;;;;;;;;;5035920;28;20437;-68
2021/10/10 07:51:27;;;;;;;0.40;0.20;;;;;;;;;;5035933;28;20087;-68
2021/10/10 07:53:53;;;;;;;0.52;0.30;;;;;;;;;;5035734;28;20021;-68
2021/10/10 07:56:19;;;;;;;0.40;0.20;;;;;;;;;;5035863;28;20456;-67
2021/10/10 07:58:45;;;;;;;0.47;0.10;;;;;;;;;;5035680;28;20017;-68
2021/10/10 08:01:10;;;;;;;0.20;0.20;;;;;;;;;;5035735;28;20077;-68
2021/10/10 08:03:35;;;;;;;0.20;0.10;;;;;;;;;;5035543;28;20483;-68
2021/10/10 08:06:01;;;;;;;1.17;0.33;;;;;;;;;;5035823;28;20100;-68
2021/10/10 08:08:26;;;;;;;0.20;0.10;;;;;;;;;;5034257;28;20254;-68
2021/10/10 08:10:51;;;;;;;0.30;0.30;;;;;;;;;;5035624;28;20045;-68
2021/10/10 08:13:17;;;;;;;0.20;0.20;;;;;;;;;;5035402;28;20032;-68
2021/10/10 08:15:42;;;;;;;0.20;0.20;;;;;;;;;;5035292;28;20022;-68
2021/10/10 08:18:07;;;;;;;0.15;0.15;;;;;;;;;;5035686;28;20027;-68
2021/10/10 08:20:32;;;;;;;1.70;0.30;;;;;;;;;;5035341;28;20056;-69
2021/10/10 08:22:58;;;;;;;0.20;0.20;;;;;;;;;;5035539;28;20038;-68
2021/10/10 08:25:23;;;;;;;0.50;0.10;;;;;;;;;;5035272;28;20014;-68
2021/10/10 08:27:48;;;;;;;0.60;0.20;;;;;;;;;;5035521;28;20026;-69
2021/10/10 08:30:18;;;;;;;0.30;0.30;;;;;;;;;;5035325;28;20014;-68
2021/10/10 08:32:45;;;;;;;0.50;0.40;;;;;;;;;;5035282;28;20647;-69
2021/10/10 08:35:10;;;;;;;0.20;0.20;;;;;;;;;;5035297;28;20480;-68
2021/10/10 08:37:35;;;;;;;0.20;0.20;;;;;;;;;;5035092;28;20009;-67
2021/10/10 08:40:01;;;;;;;0.30;0.20;;;;;;;;;;5034898;28;20372;-68
2021/10/10 08:42:33;;;;;;;0.35;0.28;;;;;;;;;;5034526;28;20259;-68
2021/10/10 08:45:31;;;;;;;0.82;0.28;;;;;;;;;;5034462;28;20065;-69
2021/10/10 08:47:53;;;;;;;0.47;0.20;;;;;;;;;;5032630;28;20568;-68
2021/10/10 08:50:21;;;;;;;1.10;0.22;;;;;;;;;;5034898;28;20464;-68
2021/10/10 08:52:47;;;;;;;0.57;0.22;;;;;;;;;;5034877;28;20026;-68
2021/10/10 08:55:13;;;;;;;0.40;0.30;;;;;;;;;;5034725;28;20021;-68
2021/10/10 08:57:40;;;;;;;1.30;0.30;;;;;;;;;;5034624;28;20055;-69
2021/10/10 09:00:08;;;;;;;0.60;0.20;;;;;;;;;;5034431;28;20493;-68
2021/10/10 09:02:33;;;;;;;0.30;0.10;;;;;;;;;;5034743;28;20029;-68
2021/10/10 09:05:03;;;;;;;0.22;0.17;;;;;;;;;;5034556;28;20029;-68
2021/10/10 09:07:29;;;;;;;0.38;0.30;;;;;;;;;;5034172;28;20060;-68
2021/10/10 09:09:54;;;;;;;1.03;0.50;;;;;;;;;;5034464;28;20025;-69
2021/10/10 09:12:27;;;;;;;0.20;0.20;;;;;;;;;;5034133;28;20258;-67
2021/10/10 09:14:53;;;;;;;0.17;0.17;;;;;;;;;;5034391;28;20469;-68
2021/10/10 09:17:21;;;;;;;0.93;0.20;;;;;;;;;;5034086;28;20393;-69
2021/10/10 09:19:50;;;;;;;0.45;0.10;;;;;;;;;;5034369;28;20156;-68
2021/10/10 09:22:16;;;;;;;0.20;0.20;;;;;;;;;;5034266;28;20492;-68
2021/10/10 09:24:42;;;;;;;0.68;0.30;;;;;;;;;;5034250;28;20029;-68
2021/10/10 09:27:14;;;;;;;0.30;0.20;;;;;;;;;;5034377;28;20024;-68
2021/10/10 09:29:45;;;;;;;0.38;0.20;;;;;;;;;;5033899;28;20028;-69
2021/10/10 09:32:16;;;;;;;0.20;0.20;;;;;;;;;;5034136;28;20093;-69
2021/10/10 09:34:42;;;;;;;0.20;0.10;;;;;;;;;;5034080;28;20096;-68
2021/10/10 09:37:19;;;;;;;0.20;0.20;;;;;;;;;;5033894;28;20117;-68
2021/10/10 09:39:48;;;;;;;1.88;0.20;;;;;;;;;;5034095;28;20029;-68
2021/10/10 09:42:35;;;;;;;0.30;0.30;;;;;;;;;;5033643;28;20021;-68
2021/10/10 09:45:12;;;;;;;0.25;0.20;;;;;;;;;;5034070;28;20014;-68
2021/10/10 09:47:52;;;;;;;0.17;0.17;;;;;;;;;;5034058;28;20020;-68
2021/10/10 09:50:17;;;;;;;0.30;0.20;;;;;;;;;;5033797;28;20041;-69
2021/10/10 09:52:43;;;;;;;0.47;0.30;;;;;;;;;;5033831;28;20070;-69
2021/10/10 09:55:10;;;;;;;0.30;0.20;;;;;;;;;;5033734;28;20040;-68
2021/10/10 09:57:43;;;;;;;0.20;0.20;;;;;;;;;;5032544;28;20017;-69
2021/10/10 10:00:38;;;;;;;0.38;0.30;;;;;;;;;;5033092;28;20057;-68
2021/10/10 10:03:09;;;;;;;0.68;0.20;;;;;;;;;;4953209;29;20042;-69
2021/10/10 10:05:34;;;;;;;0.47;0.20;;;;;;;;;;4953075;29;20019;-68
2021/10/10 10:08:00;;;;;;;1.55;0.30;;;;;;;;;;4953373;29;20038;-68
2021/10/10 10:10:28;;;;;;;0.50;0.30;;;;;;;;;;4953114;29;20494;-68
2021/10/10 10:12:54;;;;;;;0.20;0.20;;;;;;;;;;4952882;29;20561;-68
2021/10/10 10:15:30;;;;;;;0.70;0.28;;;;;;;;;;4953058;29;20030;-70
2021/10/10 10:17:57;;;;;;;0.20;0.13;;;;;;;;;;4953418;29;20055;-68
2021/10/10 10:20:23;;;;;;;1.35;0.28;;;;;;;;;;4952714;29;20054;-68
2021/10/10 10:22:53;;;;;;;0.20;0.10;;;;;;;;;;4953224;29;20054;-69
2021/10/10 10:25:19;;;;;;;0.93;0.40;;;;;;;;;;4952819;29;20363;-69
2021/10/10 10:27:45;;;;;;;0.30;0.30;;;;;;;;;;4953157;29;20054;-69
2021/10/10 10:30:10;;;;;;;1.40;0.30;;;;;;;;;;4952953;29;20628;-69
2021/10/10 10:32:36;;;;;;;0.40;0.20;;;;;;;;;;4953010;29;20023;-68
2021/10/10 10:35:11;;;;;;;0.60;0.32;;;;;;;;;;4952947;29;20094;-68
2021/10/10 10:37:55;;;;;;;0.60;0.10;;;;;;;;;;4952891;29;20043;-69
2021/10/10 10:40:31;;;;;;;0.57;0.57;;;;;;;;;;5022620;28;20036;-69
2021/10/10 10:42:57;;;;;;;0.75;0.20;;;;;;;;;;5033266;28;20029;-68
2021/10/10 10:45:24;;;;;;;0.22;0.22;;;;;;;;;;5033192;28;20484;-68
2021/10/10 10:47:52;;;;;;;0.32;0.20;;;;;;;;;;5033296;28;20026;-68
2021/10/10 10:50:22;;;;;;;0.52;0.40;;;;;;;;;;5033184;28;20028;-68
2021/10/10 10:53:13;;;;;;;0.65;0.30;;;;;;;;;;5032813;28;20013;-69
2021/10/10 10:55:40;;;;;;;0.40;0.22;;;;;;;;;;5029836;28;20117;-68
2021/10/10 10:58:05;;;;;;;0.38;0.20;;;;;;;;;;5032928;28;20018;-69
2021/10/10 11:00:32;;;;;;;0.75;0.47;;;;;;;;;;5032462;28;20064;-68
2021/10/10 11:03:03;;;;;;;0.40;0.30;;;;;;;;;;5032981;28;20014;-68
2021/10/10 11:05:28;;;;;;;0.20;0.20;;;;;;;;;;5031267;28;21001;-68
2021/10/10 11:07:55;;;;;;;0.45;0.30;;;;;;;;;;5033750;28;20021;-68
2021/10/10 11:10:20;;;;;;;0.15;0.10;;;;;;;;;;5036539;28;20075;-68
2021/10/10 11:12:51;;;;;;;0.30;0.25;;;;;;;;;;5036717;28;20021;-69
2021/10/10 11:15:16;;;;;;;0.40;0.40;;;;;;;;;;5036313;28;20059;-69
2021/10/10 11:17:52;;;;;;;1.27;0.47;;;;;;;;;;5036866;28;20021;-68
2021/10/10 11:20:17;;;;;;;0.20;0.20;;;;;;;;;;5036462;28;20293;-68
2021/10/10 11:22:43;;;;;;;0.40;0.20;;;;;;;;;;5036375;28;20064;-68
2021/10/10 11:25:08;;;;;;;0.30;0.20;;;;;;;;;;5036501;28;20021;-68
2021/10/10 11:27:34;;;;;;;0.95;0.20;;;;;;;;;;5036501;28;20255;-69
2021/10/10 11:30:00;;;;;;;0.38;0.20;;;;;;;;;;5036488;28;20028;-69
2021/10/10 11:32:25;;;;;;;0.45;0.22;;;;;;;;;;5036306;28;20099;-69
2021/10/10 11:34:58;;;;;;;0.30;0.30;;;;;;;;;;5036529;28;20512;-67
2021/10/10 11:37:23;;;;;;;0.30;0.17;;;;;;;;;;5035943;28;20385;-68
2021/10/10 11:39:48;;;;;;;0.65;0.40;;;;;;;;;;5036432;28;20494;-68
2021/10/10 11:42:14;;;;;;;1.30;0.23;;;;;;;;;;5036046;28;20376;-69
2021/10/10 11:44:43;;;;;;;0.93;0.30;;;;;;;;;;5036009;28;20310;-68
2021/10/10 11:47:19;;;;;;;2.58;0.40;;;;;;;;;;5035877;28;20021;-67
2021/10/10 11:49:46;;;;;;;0.20;0.20;;;;;;;;;;5036223;28;20014;-68
2021/10/10 11:52:27;;;;;;;0.40;0.20;;;;;;;;;;5035873;28;20017;-68
2021/10/10 11:55:20;;;;;;;0.20;0.13;;;;;;;;;;5036150;28;20052;-69
2021/10/10 11:57:42;;;;;;;0.08;0.05;;;;;;;;;;5035810;28;20373;-68
2021/10/10 12:00:09;;;;;;;0.35;0.30;;;;;;;;;;5035453;28;20468;-69
2021/10/10 12:02:38;;;;;;;0.30;0.30;;;;;;;;;;5035801;28;20100;-68
2021/10/10 12:05:08;;;;;;;0.75;0.52;;;;;;;;;;5035619;28;20021;-68
2021/10/10 12:07:33;;;;;;;0.43;0.30;;;;;;;;;;5035674;28;20465;-68
2021/10/10 12:10:00;;;;;;;0.20;0.20;;;;;;;;;;5035957;28;20032;-68
2021/10/10 12:12:26;;;;;;;0.20;0.20;;;;;;;;;;5035479;28;20108;-69
2021/10/10 12:14:53;;;;;;;0.30;0.20;;;;;;;;;;5035518;28;20060;-68
2021/10/10 12:17:25;;;;;;;0.20;0.20;;;;;;;;;;5035333;28;20059;-69
2021/10/10 12:19:51;;;;;;;0.60;0.40;;;;;;;;;;5034265;28;20029;-68
2021/10/10 12:22:17;;;;;;;0.68;0.30;;;;;;;;;;5035372;28;20032;-68
2021/10/10 12:24:46;;;;;;;0.25;0.25;;;;;;;;;;5035422;28;20101;-68
2021/10/10 12:27:11;;;;;;;0.75;0.30;;;;;;;;;;5035444;28;20018;-68
2021/10/10 12:29:47;;;;;;;0.43;0.25;;;;;;;;;;5035096;28;20055;-69
2021/10/10 12:32:22;;;;;;;1.02;0.30;;;;;;;;;;5035220;28;20021;-67
2021/10/10 12:34:48;;;;;;;0.28;0.20;;;;;;;;;;5035488;28;20022;-68
2021/10/10 12:37:24;;;;;;;0.10;0.10;;;;;;;;;;5035003;28;20017;-68
2021/10/10 12:39:49;;;;;;;0.20;0.20;;;;;;;;;;5035389;28;20036;-69
2021/10/10 12:42:17;;;;;;;1.17;0.15;;;;;;;;;;5035074;28;20022;-68
2021/10/10 12:45:03;;;;;;;0.90;0.20;;;;;;;;;;5034775;28;20032;-69
2021/10/10 12:47:29;;;;;;;0.38;0.38;;;;;;;;;;5034642;28;20099;-69
2021/10/10 12:49:54;;;;;;;1.20;0.30;;;;;;;;;;5034987;28;20056;-68
2021/10/10 12:52:33;;;;;;;0.25;0.20;;;;;;;;;;5034801;28;20018;-69
2021/10/10 12:54:58;;;;;;;0.50;0.30;;;;;;;;;;5034846;28;20548;-68
2021/10/10 12:57:24;;;;;;;0.43;0.25;;;;;;;;;;5034314;28;20021;-68
2021/10/10 12:59:50;;;;;;;0.30;0.20;;;;;;;;;;5034579;28;20099;-68
2021/10/10 13:02:15;;;;;;;0.75;0.30;;;;;;;;;;5034541;28;20076;-69
2021/10/10 13:04:40;;;;;;;0.35;0.22;;;;;;;;;;5034531;28;20044;-68
2021/10/10 13:07:06;;;;;;;0.20;0.20;;;;;;;;;;5034377;28;20025;-68
2021/10/10 13:09:31;;;;;;;0.43;0.20;;;;;;;;;;5034550;28;20021;-68
2021/10/10 13:11:57;;;;;;;0.32;0.20;;;;;;;;;;5034488;28;20014;-68
2021/10/10 13:14:23;;;;;;;0.17;0.10;;;;;;;;;;5034122;28;20022;-68
2021/10/10 13:16:49;;;;;;;0.60;0.13;;;;;;;;;;5034476;28;20032;-69
2021/10/10 13:19:15;;;;;;;1.02;0.30;;;;;;;;;;5034341;28;20117;-68
2021/10/10 13:21:41;;;;;;;0.85;0.30;;;;;;;;;;5034006;28;20052;-69
2021/10/10 13:24:06;;;;;;;0.32;0.30;;;;;;;;;;5034242;28;20061;-68
2021/10/10 13:26:32;;;;;;;1.15;0.60;;;;;;;;;;5034202;28;20020;-68
2021/10/10 13:28:58;;;;;;;0.10;0.10;;;;;;;;;;5034280;28;20088;-69
2021/10/10 13:31:24;;;;;;;0.32;0.20;;;;;;;;;;5033475;28;20441;-69
2021/10/10 13:33:49;;;;;;;0.63;0.15;;;;;;;;;;5034401;28;20144;-68
2021/10/10 13:36:18;;;;;;;0.20;0.20;;;;;;;;;;5033974;28;20056;-68
2021/10/10 13:38:44;;;;;;;0.80;0.20;;;;;;;;;;5034072;28;20479;-68
2021/10/10 13:41:09;;;;;;;0.43;0.10;;;;;;;;;;5034109;28;20046;-68
2021/10/10 13:43:34;;;;;;;0.32;0.10;;;;;;;;;;5033551;28;20029;-68
2021/10/10 13:46:00;;;;;;;1.23;0.40;;;;;;;;;;5033907;28;20388;-69
2021/10/10 13:48:25;;;;;;;0.77;0.38;;;;;;;;;;5033760;28;20036;-68
2021/10/10 13:50:51;;;;;;;0.32;0.17;;;;;;;;;;5033814;28;20460;-68
2021/10/10 13:53:16;;;;;;;0.30;0.17;;;;;;;;;;5033816;28;20480;-69
2021/10/10 13:55:41;;;;;;;0.28;0.20;;;;;;;;;;5033510;28;20492;-68
2021/10/10 13:58:07;;;;;;;0.30;0.20;;;;;;;;;;5033830;28;20068;-68
2021/10/10 14:00:32;;;;;;;0.35;0.30;;;;;;;;;;5033565;28;20041;-69
2021/10/10 14:02:57;;;;;;;1.00;0.60;;;;;;;;;;5033460;28;20029;-68
2021/10/10 14:05:22;;;;;;;0.38;0.30;;;;;;;;;;5033502;28;20686;-68
2021/10/10 14:07:48;;;;;;;0.60;0.13;;;;;;;;;;5033714;28;20016;-69
2021/10/10 14:10:13;;;;;;;0.50;0.25;;;;;;;;;;5033227;28;20096;-68
2021/10/10 14:12:38;;;;;;;0.40;0.10;;;;;;;;;;5033391;28;20083;-68
2021/10/10 14:15:04;;;;;;;0.93;0.40;;;;;;;;;;5033462;28;20104;-68
2021/10/10 14:17:29;;;;;;;0.35;0.30;;;;;;;;;;5033324;28;20040;-68
2021/10/10 14:19:54;;;;;;;1.00;0.40;;;;;;;;;;5033530;28;20029;-69
2021/10/10 14:22:21;;;;;;;0.20;0.20;;;;;;;;;;5033110;28;20029;-68
2021/10/10 14:24:48;;;;;;;0.73;0.20;;;;;;;;;;5033012;28;20372;-68
2021/10/10 14:27:14;;;;;;;0.15;0.10;;;;;;;;;;5033364;28;20022;-69
2021/10/10 14:29:40;;;;;;;0.35;0.20;;;;;;;;;;5033380;28;20020;-68
2021/10/10 14:32:05;;;;;;;1.50;0.40;;;;;;;;;;5033151;28;20056;-69
2021/10/10 14:34:31;;;;;;;0.45;0.30;;;;;;;;;;5033388;28;20041;-68
2021/10/10 14:36:56;;;;;;;1.53;0.40;;;;;;;;;;5032967;28;20032;-68
2021/10/10 14:39:21;;;;;;;0.65;0.30;;;;;;;;;;5033021;28;20057;-69
2021/10/10 14:41:53;;;;;;;0.73;0.20;;;;;;;;;;5033208;28;20021;-69
2021/10/10 14:46:50;;;;;;;0.20;0.20;;;;;;;;;;5037678;28;20096;-68
2021/10/10 14:49:16;;;;;;;0.98;0.32;;;;;;;;;;5037262;28;20519;-68
2021/10/10 14:51:42;;;;;;;0.38;0.20;;;;;;;;;;5036916;28;20150;-69